sensor_id;sensor_type;location;lat;lon;timestamp;pressure;altitude;pressure_sealevel;temperature;humidity
34328;BME280;20588;48.840;10.064;2023-11-22T00:00:11;96719.47;;;6.65;nan
34328;BME280;20588;48.840;10.064;2023-11-22T00:02:39;96721.81;;;6.60;nan
34328;BME280;20588;48.840;10.064;2023-11-22T00:05:05;96724.81;;;6.49;nan
34328;BME280;20588;48.840;10.064;2023-11-22T00:07:32;96716.53;;;6.47;nan
34328;BME280;20588;48.840;10.064;2023-11-22T00:09:58;96714.94;;;6.46;nan
34328;BME280;20588;48.840;10.064;2023-11-22T00:12:24;96715.31;;;6.43;nan
34328;BME280;20588;48.840;10.064;2023-11-22T00:14:51;96725.09;;;6.40;nan
34328;BME280;20588;48.840;10.064;2023-11-22T00:17:18;96729.88;;;6.28;nan
34328;BME280;20588;48.840;10.064;2023-11-22T00:19:44;96726.25;;;6.23;nan
34328;BME280;20588;48.840;10.064;2023-11-22T00:22:11;96730.75;;;6.21;nan
34328;BME280;20588;48.840;10.064;2023-11-22T00:24:39;96731.13;;;6.18;nan
34328;BME280;20588;48.840;10.064;2023-11-22T00:27:06;96730.75;;;6.21;nan
34328;BME280;20588;48.840;10.064;2023-11-22T00:29:32;96731.47;;;6.15;nan
34328;BME280;20588;48.840;10.064;2023-11-22T00:31:59;96732.41;;;6.14;nan
34328;BME280;20588;48.840;10.064;2023-11-22T00:34:26;96734.19;;;6.13;nan
34328;BME280;20588;48.840;10.064;2023-11-22T00:36:52;96741.22;;;6.11;nan
34328;BME280;20588;48.840;10.064;2023-11-22T00:39:19;96743.50;;;6.06;nan
34328;BME280;20588;48.840;10.064;2023-11-22T00:41:45;96746.94;;;5.99;nan
34328;BME280;20588;48.840;10.064;2023-11-22T00:44:12;96743.44;;;6.00;nan
34328;BME280;20588;48.840;10.064;2023-11-22T00:46:38;96749.44;;;5.92;nan
34328;BME280;20588;48.840;10.064;2023-11-22T00:49:05;96758.03;;;5.91;nan
34328;BME280;20588;48.840;10.064;2023-11-22T00:51:31;96763.31;;;5.90;nan
34328;BME280;20588;48.840;10.064;2023-11-22T00:53:58;96761.56;;;5.90;nan
34328;BME280;20588;48.840;10.064;2023-11-22T00:56:25;96758.44;;;5.80;nan
34328;BME280;20588;48.840;10.064;2023-11-22T00:58:52;96757.81;;;5.78;nan
34328;BME280;20588;48.840;10.064;2023-11-22T01:01:22;96770.94;;;5.75;nan
34328;BME280;20588;48.840;10.064;2023-11-22T01:03:48;96775.13;;;5.68;nan
34328;BME280;20588;48.840;10.064;2023-11-22T01:06:14;96787.00;;;5.61;nan
34328;BME280;20588;48.840;10.064;2023-11-22T01:08:40;96785.44;;;5.60;nan
34328;BME280;20588;48.840;10.064;2023-11-22T01:11:07;96782.75;;;5.53;nan
34328;BME280;20588;48.840;10.064;2023-11-22T01:13:33;96794.88;;;5.51;nan
34328;BME280;20588;48.840;10.064;2023-11-22T01:16:06;96789.78;;;5.51;nan
34328;BME280;20588;48.840;10.064;2023-11-22T01:18:33;96802.28;;;5.46;nan
34328;BME280;20588;48.840;10.064;2023-11-22T01:20:59;96800.84;;;5.44;nan
34328;BME280;20588;48.840;10.064;2023-11-22T01:23:25;96807.25;;;5.40;nan
34328;BME280;20588;48.840;10.064;2023-11-22T01:25:51;96804.44;;;5.35;nan
34328;BME280;20588;48.840;10.064;2023-11-22T01:28:17;96808.41;;;5.37;nan
34328;BME280;20588;48.840;10.064;2023-11-22T01:30:43;96810.31;;;5.35;nan
34328;BME280;20588;48.840;10.064;2023-11-22T01:33:13;96803.31;;;5.37;nan
34328;BME280;20588;48.840;10.064;2023-11-22T01:35:39;96807.16;;;5.33;nan
34328;BME280;20588;48.840;10.064;2023-11-22T01:38:05;96811.00;;;5.29;nan
34328;BME280;20588;48.840;10.064;2023-11-22T01:40:31;96805.75;;;5.31;nan
34328;BME280;20588;48.840;10.064;2023-11-22T01:43:00;96808.78;;;5.26;nan
34328;BME280;20588;48.840;10.064;2023-11-22T01:45:28;96813.25;;;5.24;nan
34328;BME280;20588;48.840;10.064;2023-11-22T01:47:56;96807.56;;;5.22;nan
34328;BME280;20588;48.840;10.064;2023-11-22T01:50:22;96810.72;;;5.24;nan
34328;BME280;20588;48.840;10.064;2023-11-22T01:52:48;96811.06;;;5.21;nan
34328;BME280;20588;48.840;10.064;2023-11-22T01:55:14;96818.28;;;5.18;nan
34328;BME280;20588;48.840;10.064;2023-11-22T01:57:41;96817.47;;;5.17;nan
34328;BME280;20588;48.840;10.064;2023-11-22T02:00:08;96810.63;;;5.18;nan
34328;BME280;20588;48.840;10.064;2023-11-22T02:02:40;96821.19;;;5.07;nan
34328;BME280;20588;48.840;10.064;2023-11-22T02:05:06;96815.78;;;5.02;nan
34328;BME280;20588;48.840;10.064;2023-11-22T02:07:33;96813.75;;;4.97;nan
34328;BME280;20588;48.840;10.064;2023-11-22T02:09:59;96810.06;;;5.00;nan
34328;BME280;20588;48.840;10.064;2023-11-22T02:12:25;96818.97;;;5.04;nan
34328;BME280;20588;48.840;10.064;2023-11-22T02:14:51;96820.91;;;5.02;nan
34328;BME280;20588;48.840;10.064;2023-11-22T02:17:17;96818.69;;;4.99;nan
34328;BME280;20588;48.840;10.064;2023-11-22T02:19:43;96824.41;;;5.01;nan
34328;BME280;20588;48.840;10.064;2023-11-22T02:22:09;96823.44;;;5.02;nan
34328;BME280;20588;48.840;10.064;2023-11-22T02:24:36;96835.44;;;4.93;nan
34328;BME280;20588;48.840;10.064;2023-11-22T02:27:03;96845.66;;;4.85;nan
34328;BME280;20588;48.840;10.064;2023-11-22T02:29:29;96853.66;;;4.82;nan
34328;BME280;20588;48.840;10.064;2023-11-22T02:31:55;96857.84;;;4.75;nan
34328;BME280;20588;48.840;10.064;2023-11-22T02:34:21;96858.28;;;4.79;nan
34328;BME280;20588;48.840;10.064;2023-11-22T02:36:47;96861.78;;;4.78;nan
34328;BME280;20588;48.840;10.064;2023-11-22T02:39:14;96857.03;;;4.75;nan
34328;BME280;20588;48.840;10.064;2023-11-22T02:41:40;96865.47;;;4.75;nan
34328;BME280;20588;48.840;10.064;2023-11-22T02:44:06;96861.88;;;4.62;nan
34328;BME280;20588;48.840;10.064;2023-11-22T02:46:33;96862.31;;;4.65;nan
34328;BME280;20588;48.840;10.064;2023-11-22T02:48:59;96864.91;;;4.57;nan
34328;BME280;20588;48.840;10.064;2023-11-22T02:51:25;96874.34;;;4.41;nan
34328;BME280;20588;48.840;10.064;2023-11-22T02:53:54;96883.72;;;4.40;nan
34328;BME280;20588;48.840;10.064;2023-11-22T02:56:20;96880.53;;;4.30;nan
34328;BME280;20588;48.840;10.064;2023-11-22T02:58:47;96893.13;;;4.32;nan
34328;BME280;20588;48.840;10.064;2023-11-22T03:01:13;96891.09;;;4.19;nan
34328;BME280;20588;48.840;10.064;2023-11-22T03:03:39;96892.03;;;4.18;nan
34328;BME280;20588;48.840;10.064;2023-11-22T03:06:06;96895.53;;;4.09;nan
34328;BME280;20588;48.840;10.064;2023-11-22T03:08:32;96895.84;;;4.06;nan
34328;BME280;20588;48.840;10.064;2023-11-22T03:10:59;96896.50;;;4.08;nan
34328;BME280;20588;48.840;10.064;2023-11-22T03:13:25;96895.84;;;4.06;nan
34328;BME280;20588;48.840;10.064;2023-11-22T03:15:51;96894.59;;;4.02;nan
34328;BME280;20588;48.840;10.064;2023-11-22T03:18:17;96898.09;;;3.93;nan
34328;BME280;20588;48.840;10.064;2023-11-22T03:20:44;96893.00;;;3.93;nan
34328;BME280;20588;48.840;10.064;2023-11-22T03:23:10;96900.00;;;3.91;nan
34328;BME280;20588;48.840;10.064;2023-11-22T03:25:37;96902.69;;;3.90;nan
34328;BME280;20588;48.840;10.064;2023-11-22T03:28:03;96910.66;;;3.87;nan
34328;BME280;20588;48.840;10.064;2023-11-22T03:30:29;96907.00;;;3.81;nan
34328;BME280;20588;48.840;10.064;2023-11-22T03:32:55;96904.47;;;3.89;nan
34328;BME280;20588;48.840;10.064;2023-11-22T03:35:21;96909.41;;;3.91;nan
34328;BME280;20588;48.840;10.064;2023-11-22T03:37:47;96903.03;;;3.79;nan
34328;BME280;20588;48.840;10.064;2023-11-22T03:40:14;96908.25;;;3.69;nan
34328;BME280;20588;48.840;10.064;2023-11-22T03:42:40;96919.41;;;3.68;nan
34328;BME280;20588;48.840;10.064;2023-11-22T03:45:07;96924.34;;;3.69;nan
34328;BME280;20588;48.840;10.064;2023-11-22T03:47:33;96931.47;;;3.66;nan
34328;BME280;20588;48.840;10.064;2023-11-22T03:50:00;96931.66;;;3.72;nan
34328;BME280;20588;48.840;10.064;2023-11-22T03:52:26;96934.03;;;3.74;nan
34328;BME280;20588;48.840;10.064;2023-11-22T03:54:54;96949.28;;;3.66;nan
34328;BME280;20588;48.840;10.064;2023-11-22T03:57:21;96956.41;;;3.62;nan
34328;BME280;20588;48.840;10.064;2023-11-22T03:59:47;96956.41;;;3.62;nan
34328;BME280;20588;48.840;10.064;2023-11-22T04:02:13;96957.84;;;3.57;nan
34328;BME280;20588;48.840;10.064;2023-11-22T04:04:39;96975.81;;;3.55;nan
34328;BME280;20588;48.840;10.064;2023-11-22T04:07:07;96981.38;;;3.59;nan
34328;BME280;20588;48.840;10.064;2023-11-22T04:09:34;96984.88;;;3.58;nan
34328;BME280;20588;48.840;10.064;2023-11-22T04:12:00;96987.41;;;3.58;nan
34328;BME280;20588;48.840;10.064;2023-11-22T04:14:26;96991.69;;;3.49;nan
34328;BME280;20588;48.840;10.064;2023-11-22T04:16:53;97002.94;;;3.47;nan
34328;BME280;20588;48.840;10.064;2023-11-22T04:19:19;97004.72;;;3.46;nan
34328;BME280;20588;48.840;10.064;2023-11-22T04:21:45;97002.94;;;3.39;nan
34328;BME280;20588;48.840;10.064;2023-11-22T04:24:11;97009.31;;;3.43;nan
34328;BME280;20588;48.840;10.064;2023-11-22T04:26:38;97016.44;;;3.39;nan
34328;BME280;20588;48.840;10.064;2023-11-22T04:29:04;97021.66;;;3.38;nan
34328;BME280;20588;48.840;10.064;2023-11-22T04:31:30;97009.59;;;3.40;nan
34328;BME280;20588;48.840;10.064;2023-11-22T04:33:56;97003.56;;;3.33;nan
34328;BME280;20588;48.840;10.064;2023-11-22T04:36:23;97008.94;;;3.30;nan
34328;BME280;20588;48.840;10.064;2023-11-22T04:38:49;97013.22;;;3.29;nan
34328;BME280;20588;48.840;10.064;2023-11-22T04:41:15;97015.91;;;3.28;nan
34328;BME280;20588;48.840;10.064;2023-11-22T04:43:42;97004.94;;;3.27;nan
34328;BME280;20588;48.840;10.064;2023-11-22T04:46:08;97016.53;;;3.22;nan
34328;BME280;20588;48.840;10.064;2023-11-22T04:48:34;97019.38;;;3.19;nan
34328;BME280;20588;48.840;10.064;2023-11-22T04:51:02;97027.31;;;3.16;nan
34328;BME280;20588;48.840;10.064;2023-11-22T04:53:28;97039.50;;;3.12;nan
34328;BME280;20588;48.840;10.064;2023-11-22T04:55:54;97043.50;;;3.15;nan
34328;BME280;20588;48.840;10.064;2023-11-22T04:58:20;97043.81;;;3.12;nan
34328;BME280;20588;48.840;10.064;2023-11-22T05:00:47;97048.38;;;3.08;nan
34328;BME280;20588;48.840;10.064;2023-11-22T05:03:13;97041.41;;;3.10;nan
34328;BME280;20588;48.840;10.064;2023-11-22T05:05:39;97049.19;;;3.09;nan
34328;BME280;20588;48.840;10.064;2023-11-22T05:08:05;97055.41;;;3.14;nan
34328;BME280;20588;48.840;10.064;2023-11-22T05:10:31;97060.66;;;3.13;nan
34328;BME280;20588;48.840;10.064;2023-11-22T05:12:57;97056.81;;;3.09;nan
34328;BME280;20588;48.840;10.064;2023-11-22T05:15:26;97056.81;;;3.09;nan
34328;BME280;20588;48.840;10.064;2023-11-22T05:17:52;97057.88;;;2.98;nan
34328;BME280;20588;48.840;10.064;2023-11-22T05:20:18;97065.97;;;3.02;nan
34328;BME280;20588;48.840;10.064;2023-11-22T05:22:44;97061.50;;;2.96;nan
34328;BME280;20588;48.840;10.064;2023-11-22T05:25:10;97053.81;;;2.88;nan
34328;BME280;20588;48.840;10.064;2023-11-22T05:27:36;97061.13;;;2.91;nan
34328;BME280;20588;48.840;10.064;2023-11-22T05:30:03;97059.59;;;2.98;nan
34328;BME280;20588;48.840;10.064;2023-11-22T05:32:30;97049.44;;;2.98;nan
34328;BME280;20588;48.840;10.064;2023-11-22T05:34:57;97070.06;;;2.95;nan
34328;BME280;20588;48.840;10.064;2023-11-22T05:37:23;97057.38;;;2.95;nan
34328;BME280;20588;48.840;10.064;2023-11-22T05:39:49;97062.88;;;2.90;nan
34328;BME280;20588;48.840;10.064;2023-11-22T05:42:15;97066.06;;;2.92;nan
34328;BME280;20588;48.840;10.064;2023-11-22T05:44:42;97071.44;;;2.89;nan
34328;BME280;20588;48.840;10.064;2023-11-22T05:47:08;97076.09;;;2.94;nan
34328;BME280;20588;48.840;10.064;2023-11-22T05:49:34;97069.78;;;2.98;nan
34328;BME280;20588;48.840;10.064;2023-11-22T05:52:00;97076.72;;;2.96;nan
34328;BME280;20588;48.840;10.064;2023-11-22T05:54:26;97070.88;;;2.95;nan
34328;BME280;20588;48.840;10.064;2023-11-22T05:56:52;97084.88;;;2.99;nan
34328;BME280;20588;48.840;10.064;2023-11-22T05:59:18;97087.03;;;2.94;nan
34328;BME280;20588;48.840;10.064;2023-11-22T06:01:44;97092.28;;;2.93;nan
34328;BME280;20588;48.840;10.064;2023-11-22T06:04:10;97095.78;;;2.92;nan
34328;BME280;20588;48.840;10.064;2023-11-22T06:06:37;97091.00;;;2.89;nan
34328;BME280;20588;48.840;10.064;2023-11-22T06:09:03;97110.22;;;2.91;nan
34328;BME280;20588;48.840;10.064;2023-11-22T06:11:31;97117.31;;;2.88;nan
34328;BME280;20588;48.840;10.064;2023-11-22T06:13:57;97118.78;;;2.90;nan
34328;BME280;20588;48.840;10.064;2023-11-22T06:16:23;97132.28;;;2.91;nan
34328;BME280;20588;48.840;10.064;2023-11-22T06:18:49;97124.94;;;2.88;nan
34328;BME280;20588;48.840;10.064;2023-11-22T06:21:15;97132.41;;;2.89;nan
34328;BME280;20588;48.840;10.064;2023-11-22T06:23:41;97140.84;;;2.90;nan
34328;BME280;20588;48.840;10.064;2023-11-22T06:26:08;97139.91;;;2.91;nan
34328;BME280;20588;48.840;10.064;2023-11-22T06:28:34;97150.06;;;2.91;nan
34328;BME280;20588;48.840;10.064;2023-11-22T06:31:00;97150.06;;;2.91;nan
34328;BME280;20588;48.840;10.064;2023-11-22T06:33:26;97155.94;;;2.91;nan
34328;BME280;20588;48.840;10.064;2023-11-22T06:35:52;97165.03;;;2.94;nan
34328;BME280;20588;48.840;10.064;2023-11-22T06:38:18;97172.66;;;2.94;nan
34328;BME280;20588;48.840;10.064;2023-11-22T06:40:44;97164.75;;;2.97;nan
34328;BME280;20588;48.840;10.064;2023-11-22T06:43:11;97172.38;;;2.97;nan
34328;BME280;20588;48.840;10.064;2023-11-22T06:45:37;97177.47;;;2.97;nan
34328;BME280;20588;48.840;10.064;2023-11-22T06:48:03;97177.22;;;3.08;nan
34328;BME280;20588;48.840;10.064;2023-11-22T06:50:29;97178.47;;;3.04;nan
34328;BME280;20588;48.840;10.064;2023-11-22T06:52:56;97175.09;;;3.03;nan
34328;BME280;20588;48.840;10.064;2023-11-22T06:55:22;97173.00;;;2.99;nan
34328;BME280;20588;48.840;10.064;2023-11-22T06:57:48;97176.06;;;3.02;nan
34328;BME280;20588;48.840;10.064;2023-11-22T07:00:15;97176.28;;;3.09;nan
34328;BME280;20588;48.840;10.064;2023-11-22T07:02:42;97182.94;;;3.10;nan
34328;BME280;20588;48.840;10.064;2023-11-22T07:05:08;97185.50;;;3.10;nan
34328;BME280;20588;48.840;10.064;2023-11-22T07:07:38;97176.91;;;3.11;nan
34328;BME280;20588;48.840;10.064;2023-11-22T07:10:04;97179.59;;;3.09;nan
34328;BME280;20588;48.840;10.064;2023-11-22T07:12:34;97177.13;;;3.17;nan
34328;BME280;20588;48.840;10.064;2023-11-22T07:15:00;97183.63;;;3.12;nan
34328;BME280;20588;48.840;10.064;2023-11-22T07:17:26;97183.31;;;3.15;nan
34328;BME280;20588;48.840;10.064;2023-11-22T07:19:55;97190.50;;;3.19;nan
34328;BME280;20588;48.840;10.064;2023-11-22T07:22:21;97183.63;;;3.37;nan
34328;BME280;20588;48.840;10.064;2023-11-22T07:24:49;97202.97;;;3.30;nan
34328;BME280;20588;48.840;10.064;2023-11-22T07:27:20;97199.63;;;3.30;nan
34328;BME280;20588;48.840;10.064;2023-11-22T07:29:47;97207.91;;;3.32;nan
34328;BME280;20588;48.840;10.064;2023-11-22T07:32:13;97227.31;;;3.33;nan
34328;BME280;20588;48.840;10.064;2023-11-22T07:34:40;97232.69;;;3.30;nan
34328;BME280;20588;48.840;10.064;2023-11-22T07:37:07;97232.19;;;3.26;nan
34328;BME280;20588;48.840;10.064;2023-11-22T07:39:34;97240.31;;;3.30;nan
34328;BME280;20588;48.840;10.064;2023-11-22T07:42:02;97239.06;;;3.34;nan
34328;BME280;20588;48.840;10.064;2023-11-22T07:44:28;97242.06;;;3.29;nan
34328;BME280;20588;48.840;10.064;2023-11-22T07:46:58;97243.78;;;3.29;nan
34328;BME280;20588;48.840;10.064;2023-11-22T07:49:25;97244.31;;;3.32;nan
34328;BME280;20588;48.840;10.064;2023-11-22T07:51:51;97241.16;;;3.38;nan
34328;BME280;20588;48.840;10.064;2023-11-22T07:54:19;97252.75;;;3.33;nan
34328;BME280;20588;48.840;10.064;2023-11-22T07:56:51;97252.16;;;3.39;nan
34328;BME280;20588;48.840;10.064;2023-11-22T07:59:18;97248.94;;;3.37;nan
34328;BME280;20588;48.840;10.064;2023-11-22T08:01:45;97259.72;;;3.31;nan
34328;BME280;20588;48.840;10.064;2023-11-22T08:04:11;97261.28;;;3.32;nan
34328;BME280;20588;48.840;10.064;2023-11-22T08:06:37;97264.94;;;3.29;nan
34328;BME280;20588;48.840;10.064;2023-11-22T08:09:04;97269.72;;;3.32;nan
34328;BME280;20588;48.840;10.064;2023-11-22T08:11:30;97274.09;;;3.40;nan
34328;BME280;20588;48.840;10.064;2023-11-22T08:13:57;97282.09;;;3.45;nan
34328;BME280;20588;48.840;10.064;2023-11-22T08:16:25;97282.50;;;3.58;nan
34328;BME280;20588;48.840;10.064;2023-11-22T08:18:52;97288.84;;;3.54;nan
34328;BME280;20588;48.840;10.064;2023-11-22T08:21:18;97285.84;;;3.41;nan
34328;BME280;20588;48.840;10.064;2023-11-22T08:23:46;97289.34;;;3.40;nan
34328;BME280;20588;48.840;10.064;2023-11-22T08:26:15;97291.66;;;3.51;nan
34328;BME280;20588;48.840;10.064;2023-11-22T08:28:42;97291.16;;;3.47;nan
34328;BME280;20588;48.840;10.064;2023-11-22T08:31:08;97288.53;;;3.39;nan
34328;BME280;20588;48.840;10.064;2023-11-22T08:33:38;97289.63;;;3.37;nan
34328;BME280;20588;48.840;10.064;2023-11-22T08:36:08;97299.38;;;3.41;nan
34328;BME280;20588;48.840;10.064;2023-11-22T08:38:35;97295.53;;;3.37;nan
34328;BME280;20588;48.840;10.064;2023-11-22T08:41:04;97295.72;;;3.44;nan
34328;BME280;20588;48.840;10.064;2023-11-22T08:43:34;97294.13;;;3.43;nan
34328;BME280;20588;48.840;10.064;2023-11-22T08:46:01;97305.41;;;3.40;nan
34328;BME280;20588;48.840;10.064;2023-11-22T08:48:30;97296.31;;;3.38;nan
34328;BME280;20588;48.840;10.064;2023-11-22T08:50:57;97287.91;;;3.37;nan
34328;BME280;20588;48.840;10.064;2023-11-22T08:53:23;97294.13;;;3.43;nan
34328;BME280;20588;48.840;10.064;2023-11-22T08:55:49;97290.34;;;3.47;nan
34328;BME280;20588;48.840;10.064;2023-11-22T08:58:15;97290.88;;;3.50;nan
34328;BME280;20588;48.840;10.064;2023-11-22T09:00:41;97287.16;;;3.45;nan
34328;BME280;20588;48.840;10.064;2023-11-22T09:03:11;97289.06;;;3.43;nan
34328;BME280;20588;48.840;10.064;2023-11-22T09:05:41;97292.00;;;3.56;nan
34328;BME280;20588;48.840;10.064;2023-11-22T09:08:08;97294.78;;;3.62;nan
34328;BME280;20588;48.840;10.064;2023-11-22T09:10:39;97291.28;;;3.63;nan
34328;BME280;20588;48.840;10.064;2023-11-22T09:13:07;97293.41;;;3.68;nan
34328;BME280;20588;48.840;10.064;2023-11-22T09:15:33;97293.75;;;3.73;nan
34328;BME280;20588;48.840;10.064;2023-11-22T09:18:01;97291.84;;;3.75;nan
34328;BME280;20588;48.840;10.064;2023-11-22T09:20:27;97290.75;;;3.78;nan
34328;BME280;20588;48.840;10.064;2023-11-22T09:22:54;97294.63;;;3.82;nan
34328;BME280;20588;48.840;10.064;2023-11-22T09:25:25;97300.25;;;3.93;nan
34328;BME280;20588;48.840;10.064;2023-11-22T09:27:56;97298.81;;;3.91;nan
34328;BME280;20588;48.840;10.064;2023-11-22T09:30:30;97296.25;;;3.91;nan
34328;BME280;20588;48.840;10.064;2023-11-22T09:33:07;97309.22;;;3.80;nan
34328;BME280;20588;48.840;10.064;2023-11-22T09:35:33;97309.00;;;3.73;nan
34328;BME280;20588;48.840;10.064;2023-11-22T09:38:03;97307.72;;;3.69;nan
34328;BME280;20588;48.840;10.064;2023-11-22T09:40:30;97317.00;;;3.78;nan
34328;BME280;20588;48.840;10.064;2023-11-22T09:42:59;97315.75;;;3.82;nan
34328;BME280;20588;48.840;10.064;2023-11-22T09:45:28;97318.25;;;3.74;nan
34328;BME280;20588;48.840;10.064;2023-11-22T09:47:55;97321.94;;;3.80;nan
34328;BME280;20588;48.840;10.064;2023-11-22T09:50:34;97319.84;;;3.75;nan
34328;BME280;20588;48.840;10.064;2023-11-22T09:53:02;97329.88;;;3.77;nan
34328;BME280;20588;48.840;10.064;2023-11-22T09:55:35;97324.91;;;3.93;nan
34328;BME280;20588;48.840;10.064;2023-11-22T09:58:02;97325.69;;;3.93;nan
34328;BME280;20588;48.840;10.064;2023-11-22T10:00:29;97335.00;;;4.02;nan
34328;BME280;20588;48.840;10.064;2023-11-22T10:02:58;97325.63;;;4.03;nan
34328;BME280;20588;48.840;10.064;2023-11-22T10:05:25;97325.03;;;4.09;nan
34328;BME280;20588;48.840;10.064;2023-11-22T10:07:54;97330.66;;;3.95;nan
34328;BME280;20588;48.840;10.064;2023-11-22T10:10:22;97325.00;;;3.65;nan
34328;BME280;20588;48.840;10.064;2023-11-22T10:12:48;97333.81;;;3.53;nan
34328;BME280;20588;48.840;10.064;2023-11-22T10:15:16;97347.81;;;3.57;nan
34328;BME280;20588;48.840;10.064;2023-11-22T10:18:02;97344.56;;;3.65;nan
34328;BME280;20588;48.840;10.064;2023-11-22T10:20:41;97344.03;;;3.79;nan
34328;BME280;20588;48.840;10.064;2023-11-22T10:23:12;97345.84;;;3.87;nan
34328;BME280;20588;48.840;10.064;2023-11-22T10:25:50;97346.28;;;3.82;nan
34328;BME280;20588;48.840;10.064;2023-11-22T10:28:21;97353.28;;;3.80;nan
34328;BME280;20588;48.840;10.064;2023-11-22T10:30:49;97369.16;;;3.74;nan
34328;BME280;20588;48.840;10.064;2023-11-22T10:33:16;97356.00;;;3.79;nan
34328;BME280;20588;48.840;10.064;2023-11-22T10:35:46;97354.59;;;3.84;nan
34328;BME280;20588;48.840;10.064;2023-11-22T10:38:17;97367.09;;;3.95;nan
34328;BME280;20588;48.840;10.064;2023-11-22T10:40:44;97352.66;;;4.04;nan
34328;BME280;20588;48.840;10.064;2023-11-22T10:43:17;97354.47;;;4.11;nan
34328;BME280;20588;48.840;10.064;2023-11-22T10:45:45;97359.56;;;4.11;nan
34328;BME280;20588;48.840;10.064;2023-11-22T10:48:15;97367.88;;;4.21;nan
34328;BME280;20588;48.840;10.064;2023-11-22T10:50:46;97366.59;;;4.17;nan
34328;BME280;20588;48.840;10.064;2023-11-22T10:53:21;97362.91;;;4.37;nan
34328;BME280;20588;48.840;10.064;2023-11-22T10:55:57;97360.09;;;4.23;nan
34328;BME280;20588;48.840;10.064;2023-11-22T10:58:26;97361.72;;;4.24;nan
34328;BME280;20588;48.840;10.064;2023-11-22T11:00:54;97363.97;;;4.27;nan
34328;BME280;20588;48.840;10.064;2023-11-22T11:03:21;97372.38;;;4.27;nan
34328;BME280;20588;48.840;10.064;2023-11-22T11:05:57;97377.34;;;4.29;nan
34328;BME280;20588;48.840;10.064;2023-11-22T11:08:26;97379.41;;;4.25;nan
34328;BME280;20588;48.840;10.064;2023-11-22T11:10:54;97379.03;;;4.20;nan
34328;BME280;20588;48.840;10.064;2023-11-22T11:13:24;97382.03;;;4.16;nan
34328;BME280;20588;48.840;10.064;2023-11-22T11:15:52;97375.34;;;4.15;nan
34328;BME280;20588;48.840;10.064;2023-11-22T11:18:19;97374.97;;;4.10;nan
34328;BME280;20588;48.840;10.064;2023-11-22T11:23:16;97374.47;;;4.06;nan
34328;BME280;20588;48.840;10.064;2023-11-22T11:25:42;97373.03;;;4.04;nan
34328;BME280;20588;48.840;10.064;2023-11-22T11:28:12;97362.03;;;4.03;nan
34328;BME280;20588;48.840;10.064;2023-11-22T11:30:44;97356.91;;;3.95;nan
34328;BME280;20588;48.840;10.064;2023-11-22T11:33:13;97348.91;;;3.90;nan
34328;BME280;20588;48.840;10.064;2023-11-22T11:35:48;97345.69;;;3.88;nan
34328;BME280;20588;48.840;10.064;2023-11-22T11:38:18;97352.25;;;3.91;nan
34328;BME280;20588;48.840;10.064;2023-11-22T11:40:46;97361.69;;;3.98;nan
34328;BME280;20588;48.840;10.064;2023-11-22T11:43:13;97359.31;;;3.97;nan
34328;BME280;20588;48.840;10.064;2023-11-22T11:45:40;97364.47;;;3.87;nan
34328;BME280;20588;48.840;10.064;2023-11-22T11:48:16;97366.56;;;3.92;nan
34328;BME280;20588;48.840;10.064;2023-11-22T11:50:43;97367.81;;;3.88;nan
34328;BME280;20588;48.840;10.064;2023-11-22T11:53:12;97377.63;;;3.83;nan
34328;BME280;20588;48.840;10.064;2023-11-22T11:55:38;97379.00;;;3.95;nan
34328;BME280;20588;48.840;10.064;2023-11-22T11:58:05;97387.75;;;3.74;nan
34328;BME280;20588;48.840;10.064;2023-11-22T12:00:37;97394.00;;;3.80;nan
34328;BME280;20588;48.840;10.064;2023-11-22T12:03:07;97395.31;;;3.84;nan
34328;BME280;20588;48.840;10.064;2023-11-22T12:05:38;97396.59;;;3.88;nan
34328;BME280;20588;48.840;10.064;2023-11-22T12:08:04;97413.41;;;3.81;nan
34328;BME280;20588;48.840;10.064;2023-11-22T12:10:31;97406.78;;;3.88;nan
34328;BME280;20588;48.840;10.064;2023-11-22T12:12:57;97404.53;;;3.85;nan
34328;BME280;20588;48.840;10.064;2023-11-22T12:15:24;97403.81;;;3.93;nan
34328;BME280;20588;48.840;10.064;2023-11-22T12:17:50;97412.63;;;3.98;nan
34328;BME280;20588;48.840;10.064;2023-11-22T12:20:18;97412.69;;;3.89;nan
34328;BME280;20588;48.840;10.064;2023-11-22T12:22:47;97417.41;;;3.84;nan
34328;BME280;20588;48.840;10.064;2023-11-22T12:25:14;97432.25;;;3.88;nan
34328;BME280;20588;48.840;10.064;2023-11-22T12:27:44;97442.13;;;3.91;nan
34328;BME280;20588;48.840;10.064;2023-11-22T12:32:54;97437.63;;;4.03;nan
34328;BME280;20588;48.840;10.064;2023-11-22T12:35:21;97446.00;;;3.95;nan
34328;BME280;20588;48.840;10.064;2023-11-22T12:37:47;97447.50;;;3.88;nan
34328;BME280;20588;48.840;10.064;2023-11-22T12:40:14;97438.00;;;3.90;nan
34328;BME280;20588;48.840;10.064;2023-11-22T12:42:50;97437.13;;;3.99;nan
34328;BME280;20588;48.840;10.064;2023-11-22T12:45:21;97428.63;;;3.91;nan
34328;BME280;20588;48.840;10.064;2023-11-22T12:47:49;97421.28;;;3.88;nan
34328;BME280;20588;48.840;10.064;2023-11-22T12:50:38;97423.69;;;3.89;nan
34328;BME280;20588;48.840;10.064;2023-11-22T12:53:12;97424.16;;;3.93;nan
34328;BME280;20588;48.840;10.064;2023-11-22T12:55:45;97426.84;;;3.91;nan
34328;BME280;20588;48.840;10.064;2023-11-22T12:58:14;97421.13;;;3.89;nan
34328;BME280;20588;48.840;10.064;2023-11-22T13:00:40;97412.47;;;3.82;nan
34328;BME280;20588;48.840;10.064;2023-11-22T13:03:10;97409.69;;;3.93;nan
34328;BME280;20588;48.840;10.064;2023-11-22T13:05:40;97417.34;;;3.93;nan
34328;BME280;20588;48.840;10.064;2023-11-22T13:08:10;97412.53;;;3.90;nan
34328;BME280;20588;48.840;10.064;2023-11-22T13:10:46;97414.41;;;3.88;nan
34328;BME280;20588;48.840;10.064;2023-11-22T13:13:14;97407.66;;;3.79;nan
34328;BME280;20588;48.840;10.064;2023-11-22T13:15:40;97422.06;;;3.70;nan
34328;BME280;20588;48.840;10.064;2023-11-22T13:18:06;97412.63;;;3.63;nan
34328;BME280;20588;48.840;10.064;2023-11-22T13:20:34;97425.03;;;3.66;nan
34328;BME280;20588;48.840;10.064;2023-11-22T13:23:01;97439.94;;;3.61;nan
34328;BME280;20588;48.840;10.064;2023-11-22T13:25:28;97459.41;;;3.52;nan
34328;BME280;20588;48.840;10.064;2023-11-22T13:27:54;97458.03;;;3.58;nan